Time;durP1;ratioP1;P1;durP2;ratioP2;P2;SDS_P1;SDS_P2;PMS_P1;PMS_P2;Temp;Humidity;BMP_temperature;BMP_pressure;BME280_temperature;BME280_humidity;BME280_pressure;Samples;Min_cycle;Max_cycle;Signal;HPM_P1;HPM_P2
2023/05/25 00:01:33;;;;;;;0.00;0.00;;;;;;;7.96;100.00;101330.00;4958944;28;20317;-78
2023/05/25 00:03:59;;;;;;;0.80;0.80;;;;;;;7.92;100.00;101326.16;4957593;28;20194;-77
2023/05/25 00:06:25;;;;;;;0.43;0.43;;;;;;;7.79;100.00;101332.13;4975180;28;20285;-76
2023/05/25 00:08:54;;;;;;;1.90;1.77;;;;;;;7.70;100.00;101327.25;4976108;28;20194;-78
2023/05/25 00:11:22;;;;;;;2.87;2.53;;;;;;;7.61;100.00;101337.03;4959063;28;20193;-77
2023/05/25 00:13:48;;;;;;;2.83;2.40;;;;;;;7.56;100.00;101336.22;4975517;28;20736;-76
2023/05/25 00:16:13;;;;;;;1.57;1.50;;;;;;;7.56;100.00;101337.03;4975725;28;20205;-77
2023/05/25 00:18:38;;;;;;;2.03;1.60;;;;;;;7.53;100.00;101336.75;4957871;28;20631;-78
2023/05/25 00:21:05;;;;;;;3.50;3.30;;;;;;;7.53;100.00;101340.28;4957657;28;20201;-78
2023/05/25 00:23:31;;;;;;;3.80;3.20;;;;;;;7.49;100.00;101331.00;4957248;28;20655;-78
2023/05/25 00:25:57;;;;;;;7.50;3.73;;;;;;;7.58;100.00;101329.41;4975308;28;20206;-78
2023/05/25 00:28:22;;;;;;;18.83;4.03;;;;;;;7.67;100.00;101324.28;4974805;28;20182;-77
2023/05/25 00:30:48;;;;;;;0.50;0.50;;;;;;;7.65;100.00;101324.50;4975560;28;20562;-76
2023/05/25 00:33:14;;;;;;;2.07;1.97;;;;;;;7.59;100.00;101313.91;4967490;28;20329;-78
2023/05/25 00:35:41;;;;;;;3.40;1.83;;;;;;;7.54;100.00;101325.59;4976355;28;20639;-78
2023/05/25 00:38:11;;;;;;;1.80;1.70;;;;;;;7.49;100.00;101322.03;4975158;28;20182;-78
2023/05/25 00:40:39;;;;;;;0.23;0.23;;;;;;;7.45;100.00;101322.59;4958156;28;20181;-77
2023/05/25 00:43:07;;;;;;;0.60;0.60;;;;;;;7.43;100.00;101329.38;4975571;28;20332;-77
2023/05/25 00:45:32;;;;;;;2.63;2.43;;;;;;;7.31;100.00;101323.38;4957962;28;20257;-76
2023/05/25 00:47:58;;;;;;;2.50;2.33;;;;;;;7.26;100.00;101324.19;4974694;28;20648;-78
2023/05/25 00:50:36;;;;;;;2.30;2.20;;;;;;;7.26;100.00;101328.78;4975436;28;20272;-78
2023/05/25 00:53:01;;;;;;;2.00;1.90;;;;;;;7.20;100.00;101329.84;4949519;28;20206;-78
2023/05/25 00:55:30;;;;;;;0.30;0.30;;;;;;;7.10;100.00;101331.47;4975165;28;20186;-76
2023/05/25 00:57:59;;;;;;;2.47;2.27;;;;;;;7.10;100.00;101327.94;4973563;28;20189;-78
2023/05/25 01:00:26;;;;;;;3.17;1.73;;;;;;;7.10;100.00;101326.03;4969384;28;20632;-77
2023/05/25 01:02:55;;;;;;;1.83;1.73;;;;;;;7.11;100.00;101324.13;4955426;28;20222;-76
2023/05/25 01:05:24;;;;;;;6.97;6.50;;;;;;;7.09;100.00;101320.88;4972257;28;20190;-78
2023/05/25 01:07:51;;;;;;;1.67;1.57;;;;;;;7.03;100.00;101330.88;4971860;28;20240;-76
2023/05/25 01:10:21;;;;;;;2.90;2.70;;;;;;;7.01;100.00;101332.22;4968994;28;20681;-78
2023/05/25 01:12:49;;;;;;;1.33;1.27;;;;;;;7.02;100.00;101320.28;4958465;28;20209;-78
2023/05/25 01:15:15;;;;;;;5.77;4.60;;;;;;;6.94;100.00;101318.06;4975806;28;20188;-78
2023/05/25 01:17:42;;;;;;;2.07;1.97;;;;;;;6.95;100.00;101317.00;4975110;28;20186;-77
2023/05/25 01:20:08;;;;;;;2.40;2.30;;;;;;;6.99;100.00;101318.91;4957743;28;20280;-77
2023/05/25 01:22:42;;;;;;;0.80;0.80;;;;;;;6.99;100.00;101324.34;4957858;28;20727;-77
2023/05/25 01:25:13;;;;;;;2.47;2.37;;;;;;;6.88;100.00;101325.38;4975678;28;20247;-77
2023/05/25 01:27:47;;;;;;;1.77;1.67;;;;;;;6.86;100.00;101330.28;4959409;28;20186;-78
2023/05/25 01:30:14;;;;;;;4.43;4.20;;;;;;;6.78;100.00;101328.84;4976920;28;20201;-78
2023/05/25 01:32:42;;;;;;;3.30;3.07;;;;;;;6.76;100.00;101330.22;4975983;28;20252;-78
2023/05/25 01:35:08;;;;;;;15.83;1.83;;;;;;;6.77;100.00;101332.66;4976070;28;20257;-77
2023/05/25 01:37:36;;;;;;;11.37;5.07;;;;;;;6.78;100.00;101325.31;4975466;28;20240;-78
2023/05/25 01:40:04;;;;;;;3.13;2.93;;;;;;;6.73;100.00;101328.03;4975848;28;20206;-78
2023/05/25 01:42:29;;;;;;;1.73;1.63;;;;;;;6.91;100.00;101332.19;4975735;28;20261;-78
2023/05/25 01:44:55;;;;;;;2.97;1.27;;;;;;;6.92;100.00;101328.38;4975600;28;20700;-76
2023/05/25 01:47:27;;;;;;;3.93;1.90;;;;;;;6.93;100.00;101325.41;4957999;28;20573;-78
2023/05/25 01:50:01;;;;;;;2.07;1.40;;;;;;;6.91;100.00;101316.69;4975806;28;20549;-78
2023/05/25 01:52:35;;;;;;;1.93;1.93;;;;;;;6.89;100.00;101318.88;4958092;28;20209;-79
2023/05/25 01:55:15;;;;;;;2.73;2.53;;;;;;;6.91;100.00;101326.75;4975751;28;20189;-78
2023/05/25 01:57:44;;;;;;;2.17;1.80;;;;;;;6.79;100.00;101324.25;4958229;28;20186;-78
2023/05/25 02:00:11;;;;;;;6.03;2.30;;;;;;;6.73;100.00;101322.59;4975494;28;20272;-76
2023/05/25 02:02:37;;;;;;;4.87;1.63;;;;;;;6.72;100.00;101323.69;4975268;28;20301;-78
2023/05/25 02:05:03;;;;;;;3.53;2.30;;;;;;;6.69;100.00;101321.50;4959607;28;20189;-79
2023/05/25 02:07:28;;;;;;;2.47;2.37;;;;;;;6.66;100.00;101320.13;4977237;28;20214;-78
2023/05/25 02:09:54;;;;;;;4.43;2.50;;;;;;;6.74;100.00;101324.22;4960933;28;20187;-77
2023/05/25 02:12:19;;;;;;;2.47;2.23;;;;;;;6.83;100.00;101319.94;4978602;28;20208;-78
2023/05/25 02:14:47;;;;;;;3.00;2.77;;;;;;;6.74;100.00;101322.31;4977670;28;20182;-79
2023/05/25 02:17:12;;;;;;;2.40;2.30;;;;;;;6.71;100.00;101327.47;4977639;28;20174;-76
2023/05/25 02:19:38;;;;;;;3.20;3.03;;;;;;;6.72;100.00;101332.66;4960005;28;20227;-79
2023/05/25 02:22:03;;;;;;;2.57;2.37;;;;;;;6.69;100.00;101327.75;4977437;28;20208;-78
2023/05/25 02:24:28;;;;;;;1.60;1.50;;;;;;;6.67;100.00;101324.47;4976301;28;20178;-78
2023/05/25 02:26:54;;;;;;;10.97;4.60;;;;;;;6.72;100.00;101326.41;4959407;28;20355;-78
2023/05/25 02:29:20;;;;;;;3.67;3.40;;;;;;;6.69;100.00;101326.94;4961318;28;20188;-78
2023/05/25 02:31:46;;;;;;;5.23;3.50;;;;;;;6.71;100.00;101322.88;4980709;28;20300;-78
2023/05/25 02:34:12;;;;;;;0.93;0.93;;;;;;;6.76;100.00;101322.88;4963353;28;20567;-77
2023/05/25 02:36:38;;;;;;;0.63;0.63;;;;;;;6.80;100.00;101321.28;4982557;28;20264;-79
2023/05/25 02:39:03;;;;;;;1.07;1.07;;;;;;;6.80;100.00;101321.28;4982032;28;20185;-78
2023/05/25 02:41:29;;;;;;;0.40;0.40;;;;;;;6.79;100.00;101319.63;4982192;28;20178;-79
2023/05/25 02:43:54;;;;;;;1.67;1.63;;;;;;;6.74;100.00;101324.22;4981906;28;20264;-79
2023/05/25 02:46:19;;;;;;;25.67;1.70;;;;;;;6.76;100.00;101332.94;4981209;28;20229;-77
2023/05/25 02:48:46;;;;;;;2.37;2.27;;;;;;;6.71;100.00;101327.47;4963946;28;20185;-79
2023/05/25 02:51:11;;;;;;;2.93;1.00;;;;;;;6.60;100.00;101329.31;4981390;28;20178;-78
2023/05/25 02:53:37;;;;;;;1.13;0.83;;;;;;;6.62;100.00;101326.34;4981578;28;20720;-79
2023/05/25 02:56:04;;;;;;;0.20;0.20;;;;;;;6.66;100.00;101332.91;4964914;28;20182;-78
2023/05/25 02:58:29;;;;;;;0.57;0.57;;;;;;;6.66;100.00;101336.44;4981979;28;20174;-79
2023/05/25 03:00:55;;;;;;;0.83;0.83;;;;;;;6.69;100.00;101327.75;4982438;28;20220;-79
2023/05/25 03:03:21;;;;;;;2.37;2.17;;;;;;;6.77;100.00;101329.13;4982231;28;20232;-78
2023/05/25 03:05:47;;;;;;;0.57;0.57;;;;;;;6.91;100.00;101330.28;4982030;28;20244;-77
2023/05/25 03:08:12;;;;;;;0.13;0.13;;;;;;;7.00;100.00;101322.44;4981742;28;20205;-78
2023/05/25 03:10:38;;;;;;;0.00;0.00;;;;;;;7.09;100.00;101329.03;4981490;28;20197;-79
2023/05/25 03:13:03;;;;;;;0.40;0.40;;;;;;;7.19;100.00;101333.66;4981718;28;20202;-79
2023/05/25 03:15:28;;;;;;;0.00;0.00;;;;;;;7.29;100.00;101339.94;4963765;28;20193;-76
2023/05/25 03:17:55;;;;;;;0.33;0.33;;;;;;;7.37;100.00;101339.41;4980808;28;20298;-79
2023/05/25 03:20:23;;;;;;;0.63;0.63;;;;;;;7.43;100.00;101340.25;4981479;28;20178;-77
2023/05/25 03:22:48;;;;;;;0.10;0.10;;;;;;;7.56;100.00;101338.94;4981006;28;20221;-78
2023/05/25 03:25:14;;;;;;;2.20;1.83;;;;;;;7.62;100.00;101346.00;4962713;28;20208;-79
2023/05/25 03:27:39;;;;;;;3.17;3.03;;;;;;;7.63;100.00;101344.91;4980156;28;20185;-79
2023/05/25 03:30:05;;;;;;;0.83;0.67;;;;;;;7.67;100.00;101349.56;4980671;28;20240;-79
2023/05/25 03:32:31;;;;;;;2.37;2.20;;;;;;;7.69;100.00;101344.66;4963094;28;20669;-78
2023/05/25 03:34:56;;;;;;;0.67;0.67;;;;;;;7.72;100.00;101348.75;4962952;28;20181;-78
2023/05/25 03:37:21;;;;;;;0.00;0.00;;;;;;;7.77;100.00;101354.19;4980187;28;20241;-76
2023/05/25 03:39:47;;;;;;;0.93;0.93;;;;;;;7.86;100.00;101357.19;4979387;28;20265;-78
2023/05/25 03:42:12;;;;;;;0.73;0.73;;;;;;;7.92;100.00;101356.09;4962161;28;20198;-78
2023/05/25 03:44:37;;;;;;;1.63;1.63;;;;;;;7.96;100.00;101362.66;4962254;28;20722;-76
2023/05/25 03:47:03;;;;;;;0.37;0.37;;;;;;;7.97;100.00;101367.00;4979242;28;20213;-78
2023/05/25 03:49:29;;;;;;;3.00;1.43;;;;;;;8.01;100.00;101359.91;4979947;28;20229;-79
2023/05/25 03:51:54;;;;;;;0.30;0.30;;;;;;;8.07;100.00;101369.72;4978965;28;20208;-77
2023/05/25 03:54:19;;;;;;;1.13;1.03;;;;;;;8.10;100.00;101366.47;4979044;28;20178;-79
2023/05/25 03:56:45;;;;;;;0.00;0.00;;;;;;;8.16;100.00;101368.09;4978557;28;20233;-79
2023/05/25 03:59:11;;;;;;;3.00;2.00;;;;;;;8.23;100.00;101374.06;4978535;28;20185;-77
2023/05/25 04:01:37;;;;;;;4.77;0.80;;;;;;;8.24;100.00;101372.97;4978684;28;20209;-79
2023/05/25 04:04:04;;;;;;;0.27;0.27;;;;;;;8.21;100.00;101372.69;4961193;28;20196;-78
2023/05/25 04:06:29;;;;;;;0.50;0.50;;;;;;;8.20;100.00;101371.88;4978524;28;20198;-78
2023/05/25 04:08:56;;;;;;;1.17;0.63;;;;;;;8.27;100.00;101367.00;4977903;28;20546;-79
2023/05/25 04:11:23;;;;;;;0.00;0.00;;;;;;;8.31;100.00;101364.53;4978142;28;20241;-78
2023/05/25 04:13:49;;;;;;;0.57;0.57;;;;;;;8.42;100.00;101376.28;4978218;28;20650;-79
2023/05/25 04:16:14;;;;;;;0.00;0.00;;;;;;;8.41;100.00;101382.81;4978704;28;20173;-79
2023/05/25 04:18:39;;;;;;;0.00;0.00;;;;;;;8.45;100.00;101378.44;4978674;28;20186;-78
2023/05/25 04:21:05;;;;;;;0.00;0.00;;;;;;;8.46;100.00;101378.19;4979433;28;20184;-79
2023/05/25 04:23:32;;;;;;;2.33;2.23;;;;;;;8.45;100.00;101390.16;4979579;28;20201;-79
2023/05/25 04:25:58;;;;;;;0.00;0.00;;;;;;;8.45;100.00;101382.00;4980011;28;20219;-79
2023/05/25 04:28:24;;;;;;;1.90;1.63;;;;;;;8.40;100.00;101397.53;4970302;28;20265;-78
2023/05/25 04:30:50;;;;;;;3.83;3.53;;;;;;;8.40;100.00;101390.16;4968431;28;20178;-78
2023/05/25 04:33:16;;;;;;;1.20;1.20;;;;;;;8.43;100.00;101391.53;4952440;28;20214;-79
2023/05/25 04:35:42;;;;;;;0.20;0.20;;;;;;;8.31;100.00;101398.03;4970318;28;20175;-77
2023/05/25 04:38:07;;;;;;;0.20;0.20;;;;;;;8.32;100.00;101394.22;4950615;28;20457;-78
2023/05/25 04:40:34;;;;;;;0.90;0.90;;;;;;;8.26;100.00;101398.03;4976776;28;20217;-79
2023/05/25 04:43:00;;;;;;;0.37;0.37;;;;;;;8.25;100.00;101406.47;4959229;28;20201;-78
2023/05/25 04:45:26;;;;;;;2.90;2.77;;;;;;;8.27;100.00;101410.56;4959329;28;20255;-78
2023/05/25 04:47:51;;;;;;;4.50;3.10;;;;;;;8.21;100.00;101406.19;4941635;28;20194;-78
2023/05/25 04:50:17;;;;;;;1.10;1.10;;;;;;;8.25;100.00;101410.03;4976494;28;20186;-78
2023/05/25 04:52:42;;;;;;;0.10;0.10;;;;;;;8.31;100.00;101416.28;4975333;28;20206;-76
2023/05/25 04:55:08;;;;;;;0.20;0.20;;;;;;;8.34;100.00;101411.13;4975284;28;20193;-78
2023/05/25 04:57:34;;;;;;;1.83;1.73;;;;;;;8.37;100.00;101409.75;4974813;28;20174;-76
2023/05/25 04:59:59;;;;;;;3.07;2.87;;;;;;;8.37;100.00;101417.94;4949602;28;20186;-79
2023/05/25 05:02:25;;;;;;;1.87;1.77;;;;;;;8.34;100.00;101421.19;4974857;28;20201;-79
2023/05/25 05:04:52;;;;;;;3.90;1.50;;;;;;;8.31;100.00;101410.81;4974530;28;20656;-78
2023/05/25 05:07:19;;;;;;;0.47;0.47;;;;;;;8.35;100.00;101423.66;4974836;28;20205;-76
2023/05/25 05:09:45;;;;;;;2.47;2.37;;;;;;;8.37;100.00;101417.09;4975588;28;20189;-78
2023/05/25 05:12:10;;;;;;;0.30;0.30;;;;;;;8.38;100.00;101421.47;4975314;28;20574;-77
2023/05/25 05:14:35;;;;;;;0.13;0.13;;;;;;;8.40;100.00;101425.56;4968696;28;20182;-77
2023/05/25 05:17:00;;;;;;;1.27;1.17;;;;;;;8.45;100.00;101430.19;4964955;28;20177;-78
2023/05/25 05:19:27;;;;;;;5.47;3.43;;;;;;;8.52;100.00;101434.25;4974741;28;20192;-78
2023/05/25 05:21:52;;;;;;;0.43;0.43;;;;;;;8.61;100.00;101431.81;4957000;28;20205;-77
2023/05/25 05:24:17;;;;;;;1.37;1.27;;;;;;;8.68;100.00;101435.09;4950551;28;20188;-78
2023/05/25 05:26:42;;;;;;;2.80;2.60;;;;;;;8.72;100.00;101436.16;4966756;28;20202;-76
2023/05/25 05:29:08;;;;;;;1.80;1.70;;;;;;;8.72;100.00;101436.16;4955896;28;20224;-75
2023/05/25 05:31:35;;;;;;;0.40;0.10;;;;;;;8.76;100.00;101445.41;4973809;28;20229;-77
2023/05/25 05:34:00;;;;;;;1.83;1.73;;;;;;;8.72;100.00;101438.06;4956689;28;20184;-77
2023/05/25 05:36:28;;;;;;;3.17;2.97;;;;;;;8.73;100.00;101440.53;4958308;28;20174;-78
2023/05/25 05:38:54;;;;;;;1.63;1.53;;;;;;;8.72;100.00;101449.78;4973059;28;20201;-78
2023/05/25 05:41:20;;;;;;;34.57;4.70;;;;;;;8.78;100.00;101445.94;4973806;28;20256;-78
2023/05/25 05:43:45;;;;;;;0.50;0.50;;;;;;;8.77;100.00;101448.97;4977085;28;20653;-78
2023/05/25 05:46:11;;;;;;;0.00;0.00;;;;;;;8.82;100.00;101447.03;4977132;28;20205;-78
2023/05/25 05:48:37;;;;;;;1.80;1.70;;;;;;;8.90;100.00;101445.66;4959363;28;20181;-78
2023/05/25 05:51:04;;;;;;;1.40;1.30;;;;;;;8.90;100.00;101457.38;4976676;28;20220;-77
2023/05/25 05:53:30;;;;;;;1.77;1.13;;;;;;;8.90;100.00;101456.56;4956898;28;20193;-78
2023/05/25 05:55:58;;;;;;;0.50;0.50;;;;;;;8.86;100.00;101461.75;4968749;28;20171;-78
2023/05/25 05:58:26;;;;;;;0.23;0.23;;;;;;;8.91;100.00;101459.00;4977263;28;20182;-78
2023/05/25 06:00:52;;;;;;;2.80;0.60;;;;;;;8.99;100.00;101457.66;4976031;28;20239;-78
2023/05/25 06:03:18;;;;;;;0.00;0.00;;;;;;;9.03;100.00;101466.91;4959798;28;20202;-79
2023/05/25 06:05:43;;;;;;;3.40;3.20;;;;;;;9.07;100.00;101464.44;4956504;28;20578;-78
2023/05/25 06:08:09;;;;;;;3.00;1.07;;;;;;;9.09;100.00;101473.16;4963863;28;20193;-78
2023/05/25 06:10:34;;;;;;;2.63;2.43;;;;;;;9.08;100.00;101480.50;4976238;28;20178;-78
2023/05/25 06:13:00;;;;;;;0.43;0.43;;;;;;;8.99;100.00;101478.66;4972496;28;20201;-77
2023/05/25 06:15:25;;;;;;;0.00;0.00;;;;;;;9.05;100.00;101483.78;4982244;28;20182;-79
2023/05/25 06:17:50;;;;;;;0.27;0.27;;;;;;;9.08;100.00;101487.88;4981127;28;20660;-76
2023/05/25 06:20:16;;;;;;;2.00;1.90;;;;;;;9.07;100.00;101489.78;4974679;28;20174;-78
2023/05/25 06:22:41;;;;;;;2.53;2.33;;;;;;;9.11;100.00;101495.50;4954679;28;20205;-79
2023/05/25 06:25:09;;;;;;;2.00;1.47;;;;;;;9.15;100.00;101507.50;4982854;28;20275;-76
2023/05/25 06:27:34;;;;;;;0.00;0.00;;;;;;;9.17;100.00;101511.59;4982411;28;20209;-78
2023/05/25 06:30:00;;;;;;;10.30;4.47;;;;;;;9.17;100.00;101517.03;4957508;28;20193;-78
2023/05/25 06:32:25;;;;;;;1.07;1.07;;;;;;;9.18;100.00;101518.66;4974873;28;20263;-79
2023/05/25 06:34:50;;;;;;;3.73;1.97;;;;;;;9.22;100.00;101510.75;4980495;28;20192;-77
2023/05/25 06:37:16;;;;;;;0.87;0.87;;;;;;;9.16;100.00;101522.78;4979996;28;20185;-78
2023/05/25 06:39:42;;;;;;;2.43;2.33;;;;;;;9.16;100.00;101522.78;4979795;28;20667;-78
2023/05/25 06:42:08;;;;;;;1.23;1.13;;;;;;;9.16;100.00;101520.03;4980289;28;20210;-78
2023/05/25 06:44:33;;;;;;;1.17;1.10;;;;;;;9.14;100.00;101527.69;4980287;28;20190;-77
2023/05/25 06:46:59;;;;;;;1.13;1.13;;;;;;;9.19;100.00;101541.28;4961516;28;20558;-78
2023/05/25 06:49:24;;;;;;;2.40;2.17;;;;;;;9.22;100.00;101536.09;4962683;28;20561;-77
2023/05/25 06:51:50;;;;;;;0.00;0.00;;;;;;;9.15;100.00;101534.78;4960319;28;20319;-77
2023/05/25 06:54:15;;;;;;;2.70;1.13;;;;;;;9.19;100.00;101531.22;4962176;28;20252;-78
2023/05/25 06:56:41;;;;;;;5.30;4.80;;;;;;;9.20;100.00;101532.84;4972888;28;20182;-75
2023/05/25 06:59:06;;;;;;;1.13;1.13;;;;;;;9.23;100.00;101531.47;4979759;28;20181;-78
2023/05/25 07:01:31;;;;;;;0.30;0.30;;;;;;;9.30;100.00;101529.28;4980360;28;20265;-78
2023/05/25 07:03:57;;;;;;;0.20;0.20;;;;;;;9.39;100.00;101538.53;4980502;28;20626;-79
2023/05/25 07:06:22;;;;;;;1.17;0.83;;;;;;;9.39;100.00;101533.06;4981880;28;20237;-77
2023/05/25 07:08:47;;;;;;;0.83;0.83;;;;;;;9.36;100.00;101538.25;4980800;28;20190;-78
2023/05/25 07:11:13;;;;;;;3.80;2.60;;;;;;;9.38;100.00;101536.88;4978995;28;20257;-78
2023/05/25 07:13:39;;;;;;;8.07;4.53;;;;;;;9.34;100.00;101533.09;4979364;28;20209;-78
2023/05/25 07:16:04;;;;;;;12.10;4.10;;;;;;;9.32;100.00;101532.56;4979106;28;20547;-78
2023/05/25 07:18:30;;;;;;;4.07;3.73;;;;;;;9.31;100.00;101532.84;4963349;28;20744;-78
2023/05/25 07:20:55;;;;;;;9.23;5.97;;;;;;;9.30;100.00;101545.66;4978510;28;20189;-77
2023/05/25 07:23:21;;;;;;;0.00;0.00;;;;;;;9.38;100.00;101536.06;4980712;28;20241;-78
2023/05/25 07:25:46;;;;;;;34.30;5.80;;;;;;;9.54;100.00;101543.13;4981784;28;20252;-78
2023/05/25 07:28:12;;;;;;;5.23;4.83;;;;;;;9.42;100.00;101546.19;4981173;28;20174;-78
2023/05/25 07:30:37;;;;;;;5.23;3.80;;;;;;;9.41;100.00;101538.28;4982664;28;20186;-77
2023/05/25 07:33:02;;;;;;;0.00;0.00;;;;;;;9.45;100.00;101544.81;4983088;28;20326;-79
2023/05/25 07:35:28;;;;;;;1.83;1.73;;;;;;;9.53;100.00;101544.22;4981459;28;20210;-79
2023/05/25 07:38:03;;;;;;;2.43;2.33;;;;;;;9.59;100.00;101547.75;4979229;28;20182;-76
2023/05/25 07:40:28;;;;;;;3.43;3.23;;;;;;;9.65;100.00;101549.38;4981355;28;20208;-77
2023/05/25 07:42:53;;;;;;;4.37;4.07;;;;;;;9.59;100.00;101553.22;4982267;28;20696;-78
2023/05/25 07:45:19;;;;;;;14.70;5.43;;;;;;;9.56;100.00;101545.59;4962645;28;20182;-78
2023/05/25 07:47:45;;;;;;;2.03;1.80;;;;;;;9.58;100.00;101546.94;4973627;28;20206;-77
2023/05/25 07:50:10;;;;;;;12.43;5.03;;;;;;;9.68;100.00;101551.53;4958551;28;20671;-76
2023/05/25 07:52:37;;;;;;;5.73;3.10;;;;;;;9.70;100.00;101547.47;4976155;28;20727;-77
2023/05/25 07:55:03;;;;;;;6.57;5.80;;;;;;;9.66;100.00;101551.00;4977361;28;20178;-76
2023/05/25 07:57:28;;;;;;;7.87;7.17;;;;;;;9.62;100.00;101552.66;4975551;28;20177;-75
2023/05/25 07:59:53;;;;;;;5.93;5.47;;;;;;;9.72;100.00;101558.09;4959130;28;20186;-77
2023/05/25 08:02:19;;;;;;;0.20;0.20;;;;;;;9.81;100.00;101564.59;4976304;28;20754;-76
2023/05/25 08:04:44;;;;;;;2.87;2.67;;;;;;;9.87;100.00;101555.31;4977216;28;20236;-77
2023/05/25 08:07:10;;;;;;;10.13;7.60;;;;;;;9.84;100.00;101553.13;4957288;28;20213;-83
2023/05/25 08:09:35;;;;;;;2.63;2.43;;;;;;;9.75;100.00;101552.88;4975125;28;20182;-85
2023/05/25 08:12:01;;;;;;;2.23;2.13;;;;;;;9.75;100.00;101554.81;4974349;28;20575;-82
2023/05/25 08:15:01;;;;;;;9.47;2.70;;;;;;;9.78;100.00;101559.69;4974944;28;20188;-83
2023/05/25 08:17:27;;;;;;;0.00;0.00;;;;;;;9.87;100.00;101565.41;4950193;28;20716;-83
2023/05/25 08:19:55;;;;;;;0.10;0.10;;;;;;;10.10;100.00;101567.47;4974890;28;20265;-84
2023/05/25 08:22:20;;;;;;;6.93;4.97;;;;;;;10.21;100.00;101568.25;4957985;28;20280;-84
2023/05/25 08:24:46;;;;;;;12.97;6.50;;;;;;;10.25;100.00;101572.06;4975129;28;20629;-85
2023/05/25 08:27:11;;;;;;;3.50;0.70;;;;;;;10.29;100.00;101575.91;4973534;28;20206;-78
2023/05/25 08:29:36;;;;;;;3.20;2.97;;;;;;;10.35;100.00;101572.03;4976183;28;20633;-78
2023/05/25 08:32:02;;;;;;;0.73;0.73;;;;;;;10.30;100.00;101564.69;4957715;28;20217;-77
2023/05/25 08:34:28;;;;;;;3.17;3.07;;;;;;;10.35;100.00;101561.91;4967578;28;20177;-76
2023/05/25 08:36:53;;;;;;;5.07;4.40;;;;;;;10.33;100.00;101571.50;4974366;28;20499;-77
2023/05/25 08:39:19;;;;;;;5.10;4.70;;;;;;;10.26;100.00;101569.06;4964214;28;20525;-77
2023/05/25 08:41:44;;;;;;;1.63;1.53;;;;;;;10.31;100.00;101573.69;4946878;29;20231;-77
2023/05/25 08:44:10;;;;;;;4.87;4.47;;;;;;;10.39;100.00;101575.81;4975045;28;20200;-77
2023/05/25 08:46:36;;;;;;;8.73;5.57;;;;;;;10.35;100.00;101575.56;4974508;28;20688;-77
2023/05/25 08:49:11;;;;;;;7.27;4.23;;;;;;;10.31;100.00;101568.22;4941468;28;20186;-77
2023/05/25 08:51:49;;;;;;;0.10;0.10;;;;;;;10.33;100.00;101576.97;4957608;28;20185;-77
2023/05/25 08:54:17;;;;;;;3.90;3.60;;;;;;;10.43;100.00;101571.44;4967540;28;20186;-77
2023/05/25 08:57:09;;;;;;;0.10;0.10;;;;;;;10.56;100.00;101576.28;4957702;28;20190;-77
2023/05/25 08:59:50;;;;;;;0.73;0.43;;;;;;;10.78;100.00;101572.28;4969460;28;20189;-78
2023/05/25 09:02:30;;;;;;;3.87;2.53;;;;;;;10.69;100.00;101575.63;4957258;28;20292;-77
2023/05/25 09:04:56;;;;;;;12.73;2.27;;;;;;;10.80;100.00;101572.81;4958182;28;20189;-78
2023/05/25 09:07:23;;;;;;;0.00;0.00;;;;;;;11.00;100.00;101581.69;4974775;28;20213;-77
2023/05/25 09:09:49;;;;;;;0.40;0.40;;;;;;;11.19;100.00;101573.59;4975321;28;20182;-77
2023/05/25 09:12:15;;;;;;;0.77;0.77;;;;;;;11.19;100.00;101568.13;4967440;28;20205;-77
2023/05/25 09:14:44;;;;;;;9.30;2.63;;;;;;;11.01;100.00;101571.56;4974767;28;20188;-78
2023/05/25 09:17:12;;;;;;;2.37;1.93;;;;;;;10.94;100.00;101571.06;4974286;28;20208;-76
2023/05/25 09:19:37;;;;;;;20.03;4.13;;;;;;;10.91;100.00;101568.91;4957243;28;20394;-78
2023/05/25 09:22:03;;;;;;;1.20;1.10;;;;;;;10.96;100.00;101579.78;4947426;28;20264;-77
2023/05/25 09:24:29;;;;;;;5.93;5.53;;;;;;;11.06;100.00;101579.72;4945994;29;20190;-78
2023/05/25 09:26:54;;;;;;;3.30;1.90;;;;;;;11.09;100.00;101581.88;4954670;28;20292;-78
2023/05/25 09:29:20;;;;;;;1.47;1.37;;;;;;;10.96;100.00;101580.59;4970860;28;20190;-78
2023/05/25 09:31:46;;;;;;;3.73;2.90;;;;;;;11.28;100.00;101588.28;4977414;28;20217;-79
2023/05/25 09:34:12;;;;;;;2.50;0.90;;;;;;;11.24;100.00;101583.66;4965842;28;20190;-78
2023/05/25 09:36:40;;;;;;;5.77;4.30;;;;;;;11.24;100.00;101592.69;4971674;28;20268;-77
2023/05/25 09:39:10;;;;;;;1.30;1.20;;;;;;;11.17;100.00;101592.22;4974346;28;20185;-78
2023/05/25 09:41:36;;;;;;;1.63;1.53;;;;;;;11.35;100.00;101589.84;4965821;28;20182;-78
2023/05/25 09:44:03;;;;;;;0.00;0.00;;;;;;;11.54;100.00;101585.28;4968077;28;20186;-78
2023/05/25 09:46:31;;;;;;;0.00;0.00;;;;;;;11.69;100.00;101581.56;4977146;28;20213;-77
2023/05/25 09:48:56;;;;;;;1.50;1.40;;;;;;;11.68;100.00;101588.94;4968037;28;20181;-78
2023/05/25 09:51:21;;;;;;;1.47;1.37;;;;;;;11.51;100.00;101580.38;4965143;28;20186;-78
2023/05/25 09:53:47;;;;;;;6.77;2.27;;;;;;;11.39;100.00;101588.97;4972977;28;20264;-77
2023/05/25 09:56:13;;;;;;;6.93;2.77;;;;;;;11.38;100.00;101592.00;4967947;28;20244;-78
2023/05/25 09:58:39;;;;;;;30.57;3.17;;;;;;;11.46;100.00;101594.94;4975292;28;20181;-78
2023/05/25 10:01:05;;;;;;;1.30;1.20;;;;;;;11.56;100.00;101597.56;4965543;28;20228;-77
2023/05/25 10:03:30;;;;;;;1.57;1.47;;;;;;;11.60;100.00;101603.28;4969190;28;20205;-77
2023/05/25 10:05:55;;;;;;;0.50;0.50;;;;;;;11.66;100.00;101598.56;4975481;28;20267;-77
2023/05/25 10:08:24;;;;;;;0.00;0.00;;;;;;;11.67;100.00;101602.94;4953439;29;20740;-78
2023/05/25 10:10:50;;;;;;;2.10;1.90;;;;;;;11.84;100.00;101597.84;4954277;28;20328;-78
2023/05/25 10:13:19;;;;;;;1.90;0.37;;;;;;;12.06;100.00;101598.13;4966110;28;20473;-78
2023/05/25 10:15:47;;;;;;;0.73;0.63;;;;;;;12.21;100.00;101603.41;4966519;28;20179;-79
2023/05/25 10:18:14;;;;;;;3.13;2.93;;;;;;;12.30;100.00;101600.84;4976375;28;20208;-78
2023/05/25 10:20:42;;;;;;;0.00;0.00;;;;;;;12.32;98.89;101600.56;4968178;28;20184;-78
2023/05/25 10:23:15;;;;;;;0.37;0.37;;;;;;;12.40;96.81;101591.66;4976632;28;20709;-78
2023/05/25 10:25:47;;;;;;;6.43;2.13;;;;;;;12.68;97.08;101598.94;4945539;28;20279;-78
2023/05/25 10:28:24;;;;;;;0.43;0.43;;;;;;;12.84;94.60;101590.47;4976669;28;20265;-77
2023/05/25 10:30:51;;;;;;;2.97;2.77;;;;;;;12.87;93.52;101585.19;4955459;28;20186;-78
2023/05/25 10:33:17;;;;;;;4.67;1.50;;;;;;;13.02;93.55;101595.94;4958878;28;20222;-78
2023/05/25 10:35:43;;;;;;;6.50;3.80;;;;;;;12.89;92.84;101593.16;4973769;28;20205;-77
2023/05/25 10:38:11;;;;;;;0.70;0.63;;;;;;;12.93;93.37;101591.44;4975490;28;20221;-77
2023/05/25 10:40:37;;;;;;;0.67;0.67;;;;;;;12.93;94.55;101594.16;4974432;28;20209;-78
2023/05/25 10:43:04;;;;;;;4.13;3.13;;;;;;;12.96;93.63;101602.59;4956472;28;20691;-79
2023/05/25 10:45:29;;;;;;;0.50;0.50;;;;;;;13.11;93.83;101599.63;4969229;28;20634;-77
2023/05/25 10:47:56;;;;;;;0.60;0.60;;;;;;;13.06;92.67;101596.97;4975496;28;20225;-78
2023/05/25 10:50:25;;;;;;;0.00;0.00;;;;;;;13.18;91.13;101593.78;4973183;28;20190;-76
2023/05/25 10:52:58;;;;;;;0.77;0.77;;;;;;;13.27;89.30;101588.41;4958548;28;20210;-77
2023/05/25 10:55:30;;;;;;;0.00;0.00;;;;;;;13.36;89.54;101595.66;4978431;28;20268;-77
2023/05/25 10:58:22;;;;;;;3.00;2.77;;;;;;;13.50;89.13;101597.63;4960635;28;20181;-78
2023/05/25 11:01:06;;;;;;;0.23;0.23;;;;;;;13.44;87.88;101583.16;4957714;28;20201;-77
2023/05/25 11:03:43;;;;;;;0.93;0.87;;;;;;;13.50;87.46;101581.13;4970103;28;20292;-77
2023/05/25 11:06:16;;;;;;;6.27;2.03;;;;;;;13.74;88.23;101584.50;4967698;28;20240;-77
2023/05/25 11:08:53;;;;;;;0.87;0.87;;;;;;;13.75;86.37;101588.09;4975509;28;20216;-76
2023/05/25 11:11:19;;;;;;;3.10;2.57;;;;;;;13.69;86.03;101590.91;4968060;28;20186;-76
2023/05/25 11:13:49;;;;;;;4.93;2.87;;;;;;;13.66;85.56;101587.97;4974984;28;20236;-77
2023/05/25 11:16:19;;;;;;;1.83;1.73;;;;;;;13.50;85.27;101587.44;4975359;28;20174;-77
2023/05/25 11:18:50;;;;;;;1.10;0.93;;;;;;;13.57;86.62;101596.09;4975161;28;20182;-77
2023/05/25 11:21:18;;;;;;;0.00;0.00;;;;;;;13.79;86.46;101595.41;4971977;28;20186;-77
2023/05/25 11:23:58;;;;;;;0.00;0.00;;;;;;;14.16;87.23;101590.78;4971763;28;20220;-77